createdAt,value
2019-04-07T00:00:12.549Z,60.02
2019-04-07T00:05:18.351Z,60.04
2019-04-07T00:10:24.923Z,60.05
2019-04-07T00:15:30.373Z,61.00
2019-04-07T00:20:36.369Z,60.77
2019-04-07T00:25:41.885Z,60.93
2019-04-07T00:30:47.651Z,60.94
2019-04-07T00:35:53.321Z,61.03
2019-04-07T00:40:59.334Z,61.03
2019-04-07T00:46:05.639Z,61.41
2019-04-07T00:51:12.383Z,61.62
2019-04-07T00:56:19.239Z,61.70
2019-04-07T01:01:26.110Z,62.33
2019-04-07T01:06:32.817Z,62.49
2019-04-07T01:11:38.497Z,62.32
2019-04-07T01:16:44.092Z,63.02
2019-04-07T01:21:51.153Z,62.90
2019-04-07T01:26:56.749Z,62.91
2019-04-07T01:32:03.011Z,62.97
2019-04-07T01:37:08.761Z,62.86
2019-04-07T01:42:18.965Z,63.25
2019-04-07T01:47:26.717Z,63.13
2019-04-07T01:52:33.978Z,63.45
2019-04-07T01:57:57.419Z,64.16
2019-04-07T02:03:19.563Z,63.13
2019-04-07T02:08:40.225Z,62.88
2019-04-07T02:14:03.728Z,63.20
2019-04-07T02:19:15.054Z,63.28
2019-04-07T02:24:22.318Z,63.74
2019-04-07T02:29:35.837Z,63.64
2019-04-07T02:34:44.066Z,64.12
2019-04-07T02:40:07.773Z,64.92
2019-04-07T02:45:34.574Z,64.64
2019-04-07T02:50:41.747Z,64.95
2019-04-07T02:55:57.785Z,64.31
2019-04-07T03:01:11.530Z,65.04
2019-04-07T03:06:37.674Z,64.55
2019-04-07T03:11:40.409Z,64.45
2019-04-07T03:16:51.307Z,64.79
2019-04-07T03:22:11.174Z,65.20
2019-04-07T03:27:22.074Z,65.38
2019-04-07T03:32:45.694Z,65.20
2019-04-07T03:37:57.140Z,65.22
2019-04-07T03:43:05.540Z,64.96
2019-04-07T03:48:13.781Z,64.77
2019-04-07T03:53:37.439Z,64.82
2019-04-07T03:58:47.541Z,64.69
2019-04-07T04:04:03.614Z,64.93
2019-04-07T04:09:28.315Z,65.46
2019-04-07T04:14:45.368Z,65.27
2019-04-07T04:19:51.899Z,65.30
2019-04-07T04:24:57.833Z,64.96
2019-04-07T04:30:03.286Z,64.71
2019-04-07T04:35:09.278Z,64.52
2019-04-07T04:40:15.964Z,64.68
2019-04-07T04:45:22.390Z,65.31
2019-04-07T04:50:27.900Z,64.73
2019-04-07T04:55:33.815Z,64.39
2019-04-07T05:00:41.194Z,64.51
2019-04-07T05:05:46.933Z,64.82
2019-04-07T05:10:52.392Z,64.17
2019-04-07T05:15:57.875Z,63.98
2019-04-07T05:21:05.213Z,63.49
2019-04-07T05:26:10.997Z,63.37
2019-04-07T05:31:19.904Z,63.48
2019-04-07T05:36:25.447Z,62.74
2019-04-07T05:41:31.236Z,62.54
2019-04-07T05:46:40.126Z,62.46
2019-04-07T05:51:44.578Z,62.06
2019-04-07T05:56:50.261Z,61.85
2019-04-07T06:02:00.685Z,61.19
2019-04-07T06:07:03.602Z,60.76
2019-04-07T06:12:09.707Z,60.87
2019-04-07T06:17:16.263Z,60.18
2019-04-07T06:22:22.034Z,59.43
2019-04-07T06:27:29.785Z,59.15
2019-04-07T06:32:37.571Z,58.88
2019-04-07T06:37:42.920Z,58.41
2019-04-07T06:42:48.896Z,57.82
2019-04-07T06:48:01.214Z,58.05
2019-04-07T06:53:15.750Z,57.23
2019-04-07T06:58:20.828Z,57.06
2019-04-07T07:03:33.537Z,55.82
2019-04-07T07:08:47.457Z,56.20
2019-04-07T07:14:03.090Z,55.53
2019-04-07T07:19:19.537Z,54.87
2019-04-07T07:24:26.397Z,54.99
2019-04-07T07:29:32.255Z,55.71
2019-04-07T07:34:39.877Z,55.96
2019-04-07T07:39:46.059Z,55.86
2019-04-07T07:44:52.496Z,56.36
2019-04-07T07:49:57.686Z,55.60
2019-04-07T07:55:04.277Z,55.60
2019-04-07T08:00:10.373Z,55.85
2019-04-07T08:05:16.037Z,54.93
2019-04-07T08:10:25.066Z,54.29
2019-04-07T08:15:32.193Z,53.72
2019-04-07T08:20:35.909Z,53.00
2019-04-07T08:25:41.127Z,53.26
2019-04-07T08:30:47.593Z,53.77
2019-04-07T08:35:55.268Z,52.77
2019-04-07T08:41:00.281Z,52.13
2019-04-07T08:46:06.262Z,50.68
2019-04-07T08:51:12.021Z,50.65
2019-04-07T08:56:17.910Z,50.08
2019-04-07T09:01:23.825Z,48.33
2019-04-07T09:06:30.269Z,47.73
2019-04-07T09:11:39.039Z,47.28
2019-04-07T09:17:02.506Z,45.68
2019-04-07T09:22:12.835Z,45.33
2019-04-07T09:27:26.732Z,45.36
2019-04-07T09:32:51.826Z,45.57
2019-04-07T09:38:10.982Z,44.51
2019-04-07T09:43:19.177Z,44.15
2019-04-07T09:48:27.837Z,42.77
2019-04-07T09:53:41.495Z,43.36
2019-04-07T09:59:03.996Z,42.77
2019-04-07T10:04:12.123Z,41.95
2019-04-07T10:09:28.737Z,41.44
2019-04-07T10:14:36.285Z,40.51
2019-04-07T10:19:43.672Z,41.29
2019-04-07T10:24:53.669Z,40.37
2019-04-07T10:30:16.900Z,40.52
2019-04-07T10:35:40.876Z,39.90
2019-04-07T10:40:51.334Z,40.27
2019-04-07T10:45:58.747Z,40.36
2019-04-07T10:51:15.507Z,39.79
2019-04-07T10:56:29.473Z,39.30
2019-04-07T11:01:40.319Z,39.08
2019-04-07T11:12:28.815Z,39.18
2019-04-07T11:17:43.558Z,39.19
2019-04-07T11:22:57.558Z,38.04
2019-04-07T11:28:05.349Z,38.43
2019-04-07T11:33:12.822Z,37.80
2019-04-07T11:38:26.733Z,37.79
2019-04-07T11:43:40.783Z,37.46
2019-04-07T11:48:54.824Z,37.12
2019-04-07T11:54:19.732Z,37.63
2019-04-07T11:59:27.477Z,36.93
2019-04-07T12:04:41.643Z,37.54
2019-04-07T12:10:00.884Z,38.28
2019-04-07T12:15:22.745Z,38.14
2019-04-07T12:20:30.060Z,37.70
2019-04-07T12:25:42.870Z,37.29
2019-04-07T12:30:50.271Z,37.39
2019-04-07T12:35:58.652Z,37.85
2019-04-07T12:41:19.144Z,38.18
2019-04-07T12:46:21.848Z,37.12
2019-04-07T12:51:32.913Z,36.87
2019-04-07T12:56:57.722Z,37.30
2019-04-07T13:02:07.100Z,37.12
2019-04-07T13:07:19.405Z,37.91
2019-04-07T13:12:31.099Z,37.78
2019-04-07T13:17:41.001Z,37.16
2019-04-07T13:23:06.179Z,36.33
2019-04-07T13:28:14.172Z,36.50
2019-04-07T13:33:29.136Z,34.41
2019-04-07T13:38:45.848Z,31.96
2019-04-07T13:44:17.220Z,30.95
2019-04-07T13:49:41.194Z,30.39
2019-04-07T13:54:49.296Z,30.15
2019-04-07T14:00:12.872Z,31.03
2019-04-07T14:05:21.195Z,30.16
2019-04-07T14:10:35.221Z,29.77
2019-04-07T14:15:55.430Z,29.79
2019-04-07T14:21:11.831Z,31.15
2019-04-07T14:26:19.081Z,31.47
2019-04-07T14:31:43.264Z,31.59
2019-04-07T14:36:50.521Z,31.93
2019-04-07T14:42:04.927Z,31.30
2019-04-07T14:47:16.195Z,31.01
2019-04-07T14:52:36.121Z,31.56
2019-04-07T14:57:52.470Z,31.42
2019-04-07T15:02:58.246Z,30.76
2019-04-07T15:08:16.299Z,30.62
2019-04-07T15:13:28.200Z,31.14
2019-04-07T15:18:33.907Z,30.60
2019-04-07T15:23:40.870Z,29.90
2019-04-07T15:28:47.195Z,30.47
2019-04-07T15:33:52.740Z,30.46
2019-04-07T15:38:58.681Z,29.98
2019-04-07T15:44:09.044Z,30.90
2019-04-07T15:49:13.195Z,31.80
2019-04-07T15:54:22.319Z,31.13
2019-04-07T15:59:29.400Z,33.45
2019-04-07T16:04:34.683Z,36.71
2019-04-07T16:09:50.807Z,38.69
2019-04-07T16:14:48.099Z,40.00
2019-04-07T16:19:55.841Z,41.54
2019-04-07T16:25:01.788Z,42.33
2019-04-07T16:30:10.319Z,42.72
2019-04-07T16:35:16.660Z,42.68
2019-04-07T16:40:23.842Z,43.26
2019-04-07T16:45:30.430Z,43.32
2019-04-07T16:50:35.615Z,43.78
2019-04-07T16:55:46.518Z,44.21
2019-04-07T17:00:50.709Z,44.91
2019-04-07T17:05:58.973Z,45.62
2019-04-07T17:11:06.427Z,46.32
2019-04-07T17:16:11.927Z,47.08
2019-04-07T17:21:20.380Z,48.60
2019-04-07T17:26:26.437Z,50.23
2019-04-07T17:31:32.617Z,51.48
2019-04-07T17:36:39.392Z,53.96
2019-04-07T17:41:48.341Z,54.58
2019-04-07T17:46:56.718Z,56.50
2019-04-07T17:52:01.876Z,56.17
2019-04-07T17:57:23.835Z,56.63
2019-04-07T18:02:32.625Z,56.40
2019-04-07T18:07:49.854Z,57.43
2019-04-07T18:13:12.457Z,58.09
2019-04-07T18:18:26.336Z,59.19
2019-04-07T18:23:53.936Z,59.60
2019-04-07T18:28:59.644Z,59.78
2019-04-07T18:34:26.974Z,59.72
2019-04-07T18:39:53.168Z,59.68
2019-04-07T18:45:12.936Z,59.27
2019-04-07T18:50:38.417Z,58.98
2019-04-07T18:56:03.451Z,58.87
2019-04-07T19:01:13.693Z,58.67
2019-04-07T19:06:23.696Z,58.92
2019-04-07T19:11:34.175Z,58.69
2019-04-07T19:16:57.224Z,58.52
2019-04-07T19:22:06.718Z,58.54
2019-04-07T19:27:25.395Z,58.42
2019-04-07T19:32:37.282Z,58.86
2019-04-07T19:37:48.312Z,58.74
2019-04-07T19:42:58.121Z,58.60
2019-04-07T19:48:08.354Z,59.56
2019-04-07T19:53:31.034Z,59.67
2019-04-07T19:58:53.455Z,59.63
2019-04-07T20:04:00.279Z,59.55
2019-04-07T20:09:15.401Z,59.64
2019-04-07T20:14:28.514Z,59.58
2019-04-07T20:19:52.180Z,59.63
2019-04-07T20:25:17.587Z,59.63
2019-04-07T20:30:36.039Z,60.59
2019-04-07T20:35:46.736Z,60.72
2019-04-07T20:40:53.770Z,60.74
2019-04-07T20:46:17.045Z,60.60
2019-04-07T20:51:39.743Z,60.28
2019-04-07T20:56:49.814Z,60.77
2019-04-07T21:02:07.503Z,60.49
2019-04-07T21:07:15.174Z,60.12
2019-04-07T21:12:38.988Z,60.05
2019-04-07T21:17:52.427Z,60.27
2019-04-07T21:23:05.641Z,59.88
2019-04-07T21:28:18.640Z,60.22
2019-04-07T21:33:34.639Z,60.16
2019-04-07T21:38:45.358Z,60.73
2019-04-07T21:44:08.063Z,61.11
2019-04-07T21:49:20.992Z,61.19
2019-04-07T21:54:28.151Z,61.58
2019-04-07T21:59:35.423Z,61.96
2019-04-07T22:04:45.769Z,61.00
2019-04-07T22:09:55.303Z,61.03
2019-04-07T22:15:00.426Z,61.01
2019-04-07T22:20:08.511Z,60.87
2019-04-07T22:25:17.409Z,61.58
2019-04-07T22:30:24.131Z,61.75
2019-04-07T22:35:29.524Z,61.51
2019-04-07T22:40:38.784Z,61.65
2019-04-07T22:45:52.695Z,61.16
2019-04-07T22:50:49.607Z,61.03
2019-04-07T22:55:54.821Z,61.29
2019-04-07T23:01:00.708Z,61.49
2019-04-07T23:06:06.430Z,61.55
2019-04-07T23:11:12.857Z,62.17
2019-04-07T23:16:20.220Z,62.53
2019-04-07T23:21:27.869Z,62.27
2019-04-07T23:26:34.311Z,61.54
2019-04-07T23:31:40.433Z,61.76
2019-04-07T23:36:45.913Z,62.26
2019-04-07T23:41:51.669Z,62.27
2019-04-07T23:46:57.184Z,61.93
2019-04-07T23:52:02.742Z,62.22
2019-04-07T23:57:08.316Z,62.41
